createdAt,value
2023-02-26T00:01:40.717Z,6.70
2023-02-26T00:04:08.928Z,6.70
2023-02-26T00:06:38.954Z,6.71
2023-02-26T00:09:06.757Z,6.70
2023-02-26T00:11:34.098Z,6.72
2023-02-26T00:14:01.440Z,6.72
2023-02-26T00:16:35.660Z,6.73
2023-02-26T00:19:06.823Z,6.75
2023-02-26T00:21:35.650Z,6.77
2023-02-26T00:24:03.461Z,6.77
2023-02-26T00:26:31.674Z,6.79
2023-02-26T00:29:00.662Z,6.81
2023-02-26T00:31:27.961Z,6.83
2023-02-26T00:33:56.908Z,6.85
2023-02-26T00:37:02.883Z,6.87
2023-02-26T00:39:33.826Z,6.90
2023-02-26T00:42:01.089Z,6.92
2023-02-26T00:44:29.154Z,6.95
2023-02-26T00:47:09.314Z,6.98
2023-02-26T00:49:53.977Z,7.01
2023-02-26T00:52:45.829Z,7.03
2023-02-26T00:55:12.954Z,7.05
2023-02-26T00:57:39.907Z,7.05
2023-02-26T01:00:07.820Z,7.07
2023-02-26T01:02:38.672Z,7.10
2023-02-26T01:05:06.532Z,7.11
2023-02-26T01:08:01.555Z,7.12
2023-02-26T01:10:29.076Z,7.13
2023-02-26T01:12:56.898Z,7.15
2023-02-26T01:15:24.672Z,7.17
2023-02-26T01:18:01.262Z,7.17
2023-02-26T01:20:41.144Z,7.17
2023-02-26T01:23:25.849Z,7.17
2023-02-26T01:26:24.014Z,7.17
2023-02-26T01:28:52.142Z,7.18
2023-02-26T01:31:49.783Z,7.18
2023-02-26T01:34:33.810Z,7.17
2023-02-26T01:37:45.350Z,7.16
2023-02-26T01:40:15.555Z,7.17
2023-02-26T01:42:48.089Z,7.19
2023-02-26T01:45:19.804Z,7.20
2023-02-26T01:48:03.055Z,7.21
2023-02-26T01:50:35.363Z,7.20
2023-02-26T01:53:24.238Z,7.18
2023-02-26T01:55:58.078Z,7.17
2023-02-26T01:58:30.693Z,7.17
2023-02-26T02:00:57.784Z,7.16
2023-02-26T02:03:27.915Z,7.16
2023-02-26T02:06:02.948Z,7.16
2023-02-26T02:08:34.905Z,7.16
2023-02-26T02:11:11.087Z,7.13
2023-02-26T02:13:45.339Z,7.11
2023-02-26T02:16:28.941Z,7.09
2023-02-26T02:19:33.373Z,7.06
2023-02-26T02:22:40.570Z,7.05
2023-02-26T02:25:37.119Z,7.03
2023-02-26T02:28:35.533Z,6.98
2023-02-26T02:31:21.151Z,6.93
2023-02-26T02:34:03.547Z,6.87
2023-02-26T02:36:48.558Z,6.80
2023-02-26T02:39:25.924Z,6.74
2023-02-26T02:42:20.127Z,6.68
2023-02-26T02:44:54.637Z,6.63
2023-02-26T02:47:23.465Z,6.58
2023-02-26T02:50:04.990Z,6.54
2023-02-26T02:52:44.487Z,6.49
2023-02-26T02:55:20.712Z,6.45
2023-02-26T02:58:04.909Z,6.40
2023-02-26T03:00:38.322Z,6.35
2023-02-26T03:03:30.264Z,6.32
2023-02-26T03:05:57.679Z,6.27
2023-02-26T03:08:34.704Z,6.26
2023-02-26T03:11:01.997Z,6.23
2023-02-26T03:13:29.065Z,6.22
2023-02-26T03:16:13.325Z,6.20
2023-02-26T03:18:52.090Z,6.17
2023-02-26T03:21:23.212Z,6.16
2023-02-26T03:24:08.694Z,6.14
2023-02-26T03:26:46.577Z,6.14
2023-02-26T03:29:18.574Z,6.14
2023-02-26T03:31:52.123Z,6.16
2023-02-26T03:34:41.170Z,6.17
2023-02-26T03:37:44.383Z,6.15
2023-02-26T03:40:29.980Z,6.13
2023-02-26T03:43:05.848Z,6.14
2023-02-26T03:45:36.131Z,6.14
2023-02-26T03:48:06.936Z,6.15
2023-02-26T03:50:39.787Z,6.17
2023-02-26T03:53:45.604Z,6.19
2023-02-26T03:56:34.582Z,6.19
2023-02-26T03:59:11.974Z,6.20
2023-02-26T04:01:56.240Z,6.21
2023-02-26T04:04:30.392Z,6.22
2023-02-26T04:06:58.585Z,6.23
2023-02-26T04:09:26.527Z,6.23
2023-02-26T04:11:56.702Z,6.25
2023-02-26T04:14:24.010Z,6.25
2023-02-26T04:16:52.107Z,6.25
2023-02-26T04:19:21.341Z,6.23
2023-02-26T04:21:48.364Z,6.21
2023-02-26T04:24:15.596Z,6.19
2023-02-26T04:26:44.977Z,6.16
2023-02-26T04:29:11.868Z,6.14
2023-02-26T04:31:40.654Z,6.13
2023-02-26T04:34:07.730Z,6.12
2023-02-26T04:36:34.646Z,6.13
2023-02-26T04:39:01.625Z,6.14
2023-02-26T04:41:30.461Z,6.14
2023-02-26T04:43:57.393Z,6.16
2023-02-26T04:46:26.969Z,6.18
2023-02-26T04:48:54.266Z,6.21
2023-02-26T04:51:21.715Z,6.23
2023-02-26T04:53:50.397Z,6.24
2023-02-26T04:56:17.334Z,6.25
2023-02-26T04:58:44.929Z,6.27
2023-02-26T05:01:15.446Z,6.28
2023-02-26T05:03:42.345Z,6.30
2023-02-26T05:06:10.653Z,6.33
2023-02-26T05:08:41.616Z,6.37
2023-02-26T05:11:10.270Z,6.41
2023-02-26T05:13:38.564Z,6.46
2023-02-26T05:16:06.921Z,6.50
2023-02-26T05:18:34.986Z,6.52
2023-02-26T05:21:02.376Z,6.54
2023-02-26T05:23:29.445Z,6.56
2023-02-26T05:25:57.593Z,6.57
2023-02-26T05:28:26.388Z,6.60
2023-02-26T05:30:55.419Z,6.63
2023-02-26T05:33:22.430Z,6.65
2023-02-26T05:35:50.280Z,6.66
2023-02-26T05:38:17.371Z,6.68
2023-02-26T05:40:47.133Z,6.72
2023-02-26T05:43:14.301Z,6.75
2023-02-26T05:45:41.147Z,6.76
2023-02-26T05:48:10.678Z,6.78
2023-02-26T05:50:37.636Z,6.80
2023-02-26T05:53:04.591Z,6.83
2023-02-26T05:55:31.551Z,6.86
2023-02-26T05:57:59.947Z,6.90
2023-02-26T06:00:28.049Z,6.95
2023-02-26T06:02:54.976Z,6.99
2023-02-26T06:05:26.449Z,7.01
2023-02-26T06:07:54.911Z,7.03
2023-02-26T06:10:22.077Z,7.04
2023-02-26T06:12:50.452Z,7.04
2023-02-26T06:15:17.960Z,7.04
2023-02-26T06:17:44.831Z,7.05
2023-02-26T06:20:18.215Z,7.08
2023-02-26T06:22:45.865Z,7.09
2023-02-26T06:25:13.503Z,7.11
2023-02-26T06:27:40.446Z,7.11
2023-02-26T06:30:07.934Z,7.10
2023-02-26T06:32:35.129Z,7.10
2023-02-26T06:35:02.188Z,7.09
2023-02-26T06:37:32.770Z,7.08
2023-02-26T06:40:00.167Z,7.08
2023-02-26T06:42:27.114Z,7.08
2023-02-26T06:44:53.995Z,7.08
2023-02-26T06:47:20.884Z,7.08
2023-02-26T06:49:48.597Z,7.04
2023-02-26T06:52:16.428Z,7.03
2023-02-26T06:54:43.686Z,7.01
2023-02-26T06:57:10.830Z,7.01
2023-02-26T06:59:37.954Z,7.00
2023-02-26T07:02:04.971Z,6.99
2023-02-26T07:04:32.021Z,6.96
2023-02-26T07:06:59.008Z,6.93
2023-02-26T07:09:25.987Z,6.90
2023-02-26T07:11:53.579Z,6.89
2023-02-26T07:14:20.711Z,6.88
2023-02-26T07:16:50.559Z,6.87
2023-02-26T07:19:19.049Z,6.85
2023-02-26T07:21:46.761Z,6.85
2023-02-26T07:24:13.671Z,6.84
2023-02-26T07:26:40.972Z,6.84
2023-02-26T07:29:08.150Z,6.84
2023-02-26T07:31:36.297Z,6.85
2023-02-26T07:34:04.700Z,6.84
2023-02-26T07:36:32.497Z,6.83
2023-02-26T07:38:59.664Z,6.81
2023-02-26T07:41:27.095Z,6.79
2023-02-26T07:43:54.162Z,6.78
2023-02-26T07:46:21.658Z,6.78
2023-02-26T07:48:48.607Z,6.77
2023-02-26T07:51:15.512Z,6.78
2023-02-26T07:53:43.424Z,6.78
2023-02-26T07:56:12.474Z,6.80
2023-02-26T07:58:39.412Z,6.83
2023-02-26T08:01:06.537Z,6.85
2023-02-26T08:03:33.530Z,6.86
2023-02-26T08:06:00.486Z,6.86
2023-02-26T08:08:34.195Z,6.85
2023-02-26T08:11:02.671Z,6.85
2023-02-26T08:13:30.141Z,6.85
2023-02-26T08:15:57.419Z,6.84
2023-02-26T08:18:25.967Z,6.83
2023-02-26T08:20:56.298Z,6.82
2023-02-26T08:23:26.202Z,6.82
2023-02-26T08:26:07.496Z,6.82
2023-02-26T08:28:34.844Z,6.80
2023-02-26T08:31:05.402Z,6.78
2023-02-26T08:33:34.368Z,6.80
2023-02-26T08:36:01.519Z,6.82
2023-02-26T08:38:29.904Z,6.83
2023-02-26T08:40:57.273Z,6.85
2023-02-26T08:43:25.904Z,6.86
2023-02-26T08:45:54.549Z,6.88
2023-02-26T08:48:22.637Z,6.89
2023-02-26T08:50:50.681Z,6.92
2023-02-26T08:53:17.620Z,6.94
2023-02-26T08:55:50.850Z,6.93
2023-02-26T08:58:19.614Z,6.90
2023-02-26T09:00:47.676Z,6.87
2023-02-26T09:03:15.345Z,6.85
2023-02-26T09:05:42.383Z,6.84
2023-02-26T09:08:10.952Z,6.83
2023-02-26T09:10:41.117Z,6.82
2023-02-26T09:13:09.334Z,6.82
2023-02-26T09:15:36.230Z,6.82
2023-02-26T09:18:03.486Z,6.83
2023-02-26T09:20:30.646Z,6.85
2023-02-26T09:22:58.117Z,6.89
2023-02-26T09:25:24.977Z,6.92
2023-02-26T09:27:51.889Z,6.95
2023-02-26T09:30:18.809Z,6.98
2023-02-26T09:32:46.519Z,6.99
2023-02-26T09:35:13.758Z,7.00
2023-02-26T09:37:40.967Z,7.01
2023-02-26T09:40:25.382Z,7.06
2023-02-26T09:43:04.361Z,7.08
2023-02-26T09:45:38.663Z,7.09
2023-02-26T09:48:07.210Z,7.11
2023-02-26T09:50:50.279Z,7.13
2023-02-26T09:53:33.791Z,7.13
2023-02-26T09:56:06.640Z,7.13
2023-02-26T09:58:38.735Z,7.13
2023-02-26T10:01:24.281Z,7.13
2023-02-26T10:04:15.485Z,7.13
2023-02-26T10:06:57.845Z,7.13
2023-02-26T10:09:30.423Z,7.14
2023-02-26T10:12:07.665Z,7.16
2023-02-26T10:14:37.493Z,7.18
2023-02-26T10:17:31.217Z,7.20
2023-02-26T10:20:04.703Z,7.25
2023-02-26T10:22:31.770Z,7.28
2023-02-26T10:25:05.876Z,7.32
2023-02-26T10:27:53.133Z,7.36
2023-02-26T10:30:49.536Z,7.40
2023-02-26T10:33:43.684Z,7.40
2023-02-26T10:36:44.397Z,7.40
2023-02-26T10:39:27.756Z,7.41
2023-02-26T10:41:59.249Z,7.43
2023-02-26T10:44:58.866Z,7.44
2023-02-26T10:47:28.692Z,7.47
2023-02-26T10:50:09.277Z,7.50
2023-02-26T10:52:37.596Z,7.53
2023-02-26T10:55:25.224Z,7.56
2023-02-26T10:58:14.739Z,7.58
2023-02-26T11:00:47.032Z,7.61
2023-02-26T11:03:21.534Z,7.64
2023-02-26T11:05:49.051Z,7.67
2023-02-26T11:08:40.253Z,7.69
2023-02-26T11:11:07.701Z,7.74
2023-02-26T11:13:38.242Z,7.76
2023-02-26T11:16:11.786Z,7.77
2023-02-26T11:18:43.801Z,7.79
2023-02-26T11:21:18.978Z,7.81
2023-02-26T11:23:59.222Z,7.85
2023-02-26T11:26:30.510Z,7.89
2023-02-26T11:28:59.089Z,7.92
2023-02-26T11:31:27.390Z,7.94
2023-02-26T11:34:08.410Z,7.94
2023-02-26T11:36:39.840Z,7.94
2023-02-26T11:39:23.293Z,7.97
2023-02-26T11:41:54.935Z,8.00
2023-02-26T11:44:39.302Z,8.05
2023-02-26T11:47:13.556Z,8.08
2023-02-26T11:49:49.544Z,8.12
2023-02-26T11:52:32.421Z,8.14
2023-02-26T11:55:02.612Z,8.16
2023-02-26T11:57:32.708Z,8.19
2023-02-26T12:00:16.416Z,8.21
2023-02-26T12:02:45.047Z,8.23
2023-02-26T12:05:16.718Z,8.25
2023-02-26T12:07:46.380Z,8.25
2023-02-26T12:10:18.336Z,8.26
2023-02-26T12:13:19.165Z,8.26
2023-02-26T12:16:13.697Z,8.26
2023-02-26T12:19:21.524Z,8.29
2023-02-26T12:22:13.206Z,8.29
2023-02-26T12:24:58.375Z,8.29
2023-02-26T12:27:47.380Z,8.28
2023-02-26T12:30:44.995Z,8.26
2023-02-26T12:33:16.679Z,8.23
2023-02-26T12:35:56.177Z,8.22
2023-02-26T12:38:54.568Z,8.22
2023-02-26T12:41:44.435Z,8.22
2023-02-26T12:44:31.968Z,8.22
2023-02-26T12:47:24.035Z,8.24
2023-02-26T12:50:20.939Z,8.24
2023-02-26T12:52:54.686Z,8.25
2023-02-26T12:55:33.648Z,8.25
2023-02-26T12:58:26.522Z,8.26
2023-02-26T13:01:15.566Z,8.26
2023-02-26T13:04:01.255Z,8.26
2023-02-26T13:06:34.936Z,8.28
2023-02-26T13:09:38.074Z,8.30
2023-02-26T13:12:09.336Z,8.35
2023-02-26T13:14:50.638Z,8.36
2023-02-26T13:17:36.936Z,8.36
2023-02-26T13:20:16.420Z,8.39
2023-02-26T13:22:51.356Z,8.40
2023-02-26T13:25:33.245Z,8.41
2023-02-26T13:28:09.594Z,8.40
2023-02-26T13:30:46.716Z,8.42
2023-02-26T13:33:19.250Z,8.47
2023-02-26T13:35:50.690Z,8.51
2023-02-26T13:38:40.636Z,8.53
2023-02-26T13:41:14.970Z,8.56
2023-02-26T13:44:19.648Z,8.58
2023-02-26T13:47:05.446Z,8.61
2023-02-26T13:50:08.292Z,8.64
2023-02-26T13:52:36.440Z,8.68
2023-02-26T13:55:05.438Z,8.70
2023-02-26T13:57:32.724Z,8.73
2023-02-26T14:00:11.005Z,8.75
2023-02-26T14:02:46.807Z,8.75
2023-02-26T14:05:31.107Z,8.74
2023-02-26T14:07:58.000Z,8.73
2023-02-26T14:10:43.867Z,8.72
2023-02-26T14:13:16.653Z,8.71
2023-02-26T14:16:01.936Z,8.69
2023-02-26T14:18:48.165Z,8.66
2023-02-26T14:21:24.646Z,8.62
2023-02-26T14:24:15.724Z,8.58
2023-02-26T14:27:03.139Z,8.54
2023-02-26T14:29:57.722Z,8.50
2023-02-26T14:32:54.004Z,8.46
2023-02-26T14:35:27.843Z,8.41
2023-02-26T14:38:07.385Z,8.37
2023-02-26T14:40:50.848Z,8.35
2023-02-26T14:43:43.069Z,8.33
2023-02-26T14:46:11.050Z,8.32
2023-02-26T14:48:39.152Z,8.32
2023-02-26T14:51:31.290Z,8.32
2023-02-26T14:54:07.931Z,8.32
2023-02-26T14:56:47.240Z,8.31
2023-02-26T14:59:24.059Z,8.30
2023-02-26T15:01:53.299Z,8.28
2023-02-26T15:04:52.438Z,8.27
2023-02-26T15:07:44.061Z,8.25
2023-02-26T15:10:42.262Z,8.24
2023-02-26T15:13:40.127Z,8.23
2023-02-26T15:16:51.267Z,8.23
2023-02-26T15:19:33.599Z,8.22
2023-02-26T15:22:05.114Z,8.23
2023-02-26T15:24:32.611Z,8.23
2023-02-26T15:27:06.002Z,8.22
2023-02-26T15:29:38.238Z,8.22
2023-02-26T15:32:22.713Z,8.20
2023-02-26T15:35:07.105Z,8.18
2023-02-26T15:37:34.990Z,8.16
2023-02-26T15:40:06.785Z,8.15
2023-02-26T15:42:38.640Z,8.14
2023-02-26T15:45:30.909Z,8.13
2023-02-26T15:48:02.268Z,8.11
2023-02-26T15:50:33.378Z,8.10
2023-02-26T15:53:03.574Z,8.08
2023-02-26T15:55:43.592Z,8.06
2023-02-26T15:58:20.026Z,8.04
2023-02-26T16:00:53.514Z,8.02
2023-02-26T16:03:30.621Z,8.01
2023-02-26T16:05:58.487Z,7.99
2023-02-26T16:08:26.313Z,8.00
2023-02-26T16:10:56.977Z,7.99
2023-02-26T16:13:31.119Z,7.98
2023-02-26T16:16:02.737Z,7.98
2023-02-26T16:18:32.677Z,7.97
2023-02-26T16:21:03.755Z,7.97
2023-02-26T16:23:45.850Z,7.97
2023-02-26T16:26:21.940Z,7.97
2023-02-26T16:28:57.619Z,7.98
2023-02-26T16:31:27.058Z,7.98
2023-02-26T16:33:58.871Z,7.97
2023-02-26T16:36:31.128Z,7.96
2023-02-26T16:39:08.553Z,7.97
2023-02-26T16:41:40.264Z,7.97
2023-02-26T16:44:29.676Z,7.96
2023-02-26T16:47:01.878Z,7.94
2023-02-26T16:49:35.679Z,7.93
2023-02-26T16:52:04.828Z,7.92
2023-02-26T16:54:36.288Z,7.91
2023-02-26T16:57:07.826Z,7.89
2023-02-26T16:59:38.014Z,7.87
2023-02-26T17:02:18.008Z,7.85
2023-02-26T17:04:52.018Z,7.84
2023-02-26T17:07:32.624Z,7.82
2023-02-26T17:10:21.243Z,7.79
2023-02-26T17:12:53.275Z,7.77
2023-02-26T17:15:29.329Z,7.76
2023-02-26T17:18:03.687Z,7.75
2023-02-26T17:20:31.895Z,7.75
2023-02-26T17:23:01.119Z,7.74
2023-02-26T17:25:35.218Z,7.73
2023-02-26T17:28:03.355Z,7.70
2023-02-26T17:30:34.104Z,7.69
2023-02-26T17:33:03.792Z,7.69
2023-02-26T17:35:35.090Z,7.68
2023-02-26T17:38:02.406Z,7.67
2023-02-26T17:40:35.854Z,7.66
2023-02-26T17:43:04.245Z,7.66
2023-02-26T17:45:33.066Z,7.64
2023-02-26T17:48:00.796Z,7.62
2023-02-26T17:50:40.134Z,7.60
2023-02-26T17:53:07.697Z,7.57
2023-02-26T17:55:38.729Z,7.55
2023-02-26T17:58:12.773Z,7.52
2023-02-26T18:00:42.560Z,7.50
2023-02-26T18:03:10.525Z,7.46
2023-02-26T18:05:39.966Z,7.43
2023-02-26T18:08:16.875Z,7.42
2023-02-26T18:10:43.730Z,7.44
2023-02-26T18:13:10.850Z,7.44
2023-02-26T18:15:38.189Z,7.44
2023-02-26T18:18:05.806Z,7.41
2023-02-26T18:20:32.940Z,7.40
2023-02-26T18:23:02.620Z,7.38
2023-02-26T18:25:44.786Z,7.34
2023-02-26T18:28:23.332Z,7.33
2023-02-26T18:30:51.770Z,7.33
2023-02-26T18:33:21.303Z,7.36
2023-02-26T18:35:52.618Z,7.39
2023-02-26T18:38:22.646Z,7.42
2023-02-26T18:40:53.288Z,7.42
2023-02-26T18:43:21.235Z,7.43
2023-02-26T18:45:50.024Z,7.42
2023-02-26T18:48:20.252Z,7.41
2023-02-26T18:50:48.455Z,7.39
2023-02-26T18:53:17.112Z,7.37
2023-02-26T18:55:44.647Z,7.37
2023-02-26T18:58:12.577Z,7.38
2023-02-26T19:00:39.984Z,7.38
2023-02-26T19:03:08.691Z,7.40
2023-02-26T19:05:36.257Z,7.40
2023-02-26T19:08:03.383Z,7.39
2023-02-26T19:10:31.234Z,7.38
2023-02-26T19:13:00.600Z,7.37
2023-02-26T19:15:27.835Z,7.35
2023-02-26T19:17:54.912Z,7.33
2023-02-26T19:20:22.546Z,7.32
2023-02-26T19:22:54.468Z,7.32
2023-02-26T19:25:25.308Z,7.33
2023-02-26T19:27:52.802Z,7.34
2023-02-26T19:30:24.424Z,7.33
2023-02-26T19:32:52.801Z,7.33
2023-02-26T19:35:20.372Z,7.33
2023-02-26T19:37:47.958Z,7.32
2023-02-26T19:40:19.167Z,7.31
2023-02-26T19:42:47.160Z,7.29
2023-02-26T19:45:15.439Z,7.29
2023-02-26T19:47:43.052Z,7.27
2023-02-26T19:50:11.157Z,7.27
2023-02-26T19:52:38.103Z,7.27
2023-02-26T19:55:06.882Z,7.28
2023-02-26T19:57:34.256Z,7.28
2023-02-26T20:00:02.751Z,7.28
2023-02-26T20:02:39.021Z,7.29
2023-02-26T20:05:07.370Z,7.29
2023-02-26T20:07:34.783Z,7.28
2023-02-26T20:10:05.934Z,7.28
2023-02-26T20:12:34.193Z,7.27
2023-02-26T20:15:01.364Z,7.26
2023-02-26T20:17:29.208Z,7.26
2023-02-26T20:19:58.456Z,7.25
2023-02-26T20:22:31.320Z,7.24
2023-02-26T20:24:59.412Z,7.23
2023-02-26T20:27:26.707Z,7.21
2023-02-26T20:29:53.625Z,7.21
2023-02-26T20:32:20.992Z,7.21
2023-02-26T20:34:48.047Z,7.20
2023-02-26T20:37:15.490Z,7.21
2023-02-26T20:39:43.484Z,7.22
2023-02-26T20:42:10.774Z,7.25
2023-02-26T20:44:37.958Z,7.27
2023-02-26T20:47:05.576Z,7.31
2023-02-26T20:49:33.212Z,7.36
2023-02-26T20:52:01.030Z,7.40
2023-02-26T20:54:28.320Z,7.44
2023-02-26T20:56:57.840Z,7.47
2023-02-26T20:59:25.369Z,7.48
2023-02-26T21:01:53.289Z,7.51
2023-02-26T21:04:20.510Z,7.53
2023-02-26T21:06:47.588Z,7.53
2023-02-26T21:09:14.574Z,7.55
2023-02-26T21:11:42.156Z,7.54
2023-02-26T21:14:10.162Z,7.54
2023-02-26T21:16:40.153Z,7.54
2023-02-26T21:19:07.102Z,7.55
2023-02-26T21:21:34.426Z,7.55
2023-02-26T21:24:02.086Z,7.55
2023-02-26T21:26:29.265Z,7.54
2023-02-26T21:28:56.347Z,7.56
2023-02-26T21:31:23.416Z,7.57
2023-02-26T21:33:50.767Z,7.57
2023-02-26T21:36:17.632Z,7.56
2023-02-26T21:38:47.544Z,7.56
2023-02-26T21:41:14.586Z,7.56
2023-02-26T21:43:43.364Z,7.55
2023-02-26T21:46:10.292Z,7.52
2023-02-26T21:48:37.198Z,7.51
2023-02-26T21:51:04.530Z,7.50
2023-02-26T21:53:32.300Z,7.48
2023-02-26T21:55:59.193Z,7.47
2023-02-26T21:58:31.542Z,7.44
2023-02-26T22:01:00.555Z,7.42
2023-02-26T22:03:27.544Z,7.40
2023-02-26T22:05:54.937Z,7.39
2023-02-26T22:08:22.246Z,7.37
2023-02-26T22:10:49.547Z,7.36
2023-02-26T22:13:16.603Z,7.36
2023-02-26T22:15:44.204Z,7.35
2023-02-26T22:18:13.617Z,7.35
2023-02-26T22:20:40.830Z,7.36
2023-02-26T22:23:07.814Z,7.37
2023-02-26T22:25:35.876Z,7.37
2023-02-26T22:28:03.028Z,7.35
2023-02-26T22:30:32.178Z,7.35
2023-02-26T22:32:59.202Z,7.33
2023-02-26T22:35:26.275Z,7.32
2023-02-26T22:37:53.811Z,7.30
2023-02-26T22:40:21.237Z,7.28
2023-02-26T22:42:48.661Z,7.27
2023-02-26T22:45:16.935Z,7.26
2023-02-26T22:47:45.081Z,7.25
2023-02-26T22:50:13.779Z,7.24
2023-02-26T22:52:41.797Z,7.23
2023-02-26T22:55:10.705Z,7.21
2023-02-26T22:57:38.212Z,7.19
2023-02-26T23:00:10.790Z,7.19
2023-02-26T23:02:40.740Z,7.18
2023-02-26T23:05:11.090Z,7.16
2023-02-26T23:07:41.851Z,7.15
2023-02-26T23:10:13.862Z,7.13
2023-02-26T23:12:41.980Z,7.13
2023-02-26T23:15:09.505Z,7.11
2023-02-26T23:17:36.982Z,7.08
2023-02-26T23:20:09.563Z,7.07
2023-02-26T23:22:38.982Z,7.07
2023-02-26T23:25:06.117Z,7.08
2023-02-26T23:27:33.807Z,7.07
2023-02-26T23:30:01.468Z,7.06
2023-02-26T23:32:28.920Z,7.05
2023-02-26T23:34:57.047Z,7.04
2023-02-26T23:37:24.437Z,7.02
2023-02-26T23:39:52.370Z,7.00
2023-02-26T23:42:19.617Z,6.99
2023-02-26T23:44:46.563Z,6.98
2023-02-26T23:47:13.771Z,6.98
2023-02-26T23:49:41.979Z,6.97
2023-02-26T23:52:08.967Z,6.95
2023-02-26T23:54:39.148Z,6.93
2023-02-26T23:57:06.546Z,6.92
2023-02-26T23:59:34.160Z,6.91
